Time;durP1;ratioP1;P1;durP2;ratioP2;P2;SDS_P1;SDS_P2;PMS_P1;PMS_P2;Temp;Humidity;BMP_temperature;BMP_pressure;BME280_temperature;BME280_humidity;BME280_pressure;Samples;Min_cycle;Max_cycle;Signal;HPM_P1;HPM_P2
2020/12/24 00:02:02;;;;;;;5.87;1.27;;;10.30;99.90;;;;;;5013178;28;20185;-67
2020/12/24 00:04:27;;;;;;;6.17;1.87;;;10.20;99.90;;;;;;5013144;28;20184;-67
2020/12/24 00:06:53;;;;;;;6.47;1.10;;;10.20;99.90;;;;;;5011394;28;20208;-68
2020/12/24 00:09:19;;;;;;;5.50;1.37;;;10.30;99.90;;;;;;5013097;28;20662;-66
2020/12/24 00:11:44;;;;;;;5.67;1.23;;;10.30;99.90;;;;;;5013171;28;20242;-66
2020/12/24 00:14:10;;;;;;;6.50;1.43;;;10.40;99.90;;;;;;5012895;28;20176;-67
2020/12/24 00:16:36;;;;;;;7.33;1.33;;;10.40;99.90;;;;;;5012998;28;20243;-68
2020/12/24 00:19:02;;;;;;;5.00;1.00;;;10.30;99.90;;;;;;5012786;28;20183;-67
2020/12/24 00:21:27;;;;;;;6.60;1.10;;;10.40;99.90;;;;;;5012917;28;20173;-67
2020/12/24 00:23:53;;;;;;;3.77;1.13;;;10.30;99.90;;;;;;5012644;28;20407;-67
2020/12/24 00:26:18;;;;;;;4.13;1.07;;;10.40;99.90;;;;;;5012133;28;20192;-67
2020/12/24 00:28:44;;;;;;;6.00;1.23;;;10.30;99.90;;;;;;5012732;28;20520;-67
2020/12/24 00:31:10;;;;;;;5.10;1.00;;;10.20;99.90;;;;;;5012726;28;20185;-68
2020/12/24 00:33:35;;;;;;;6.70;1.10;;;10.30;99.90;;;;;;5012996;28;20176;-68
2020/12/24 00:36:01;;;;;;;4.37;1.53;;;10.30;99.90;;;;;;5012590;28;20216;-68
2020/12/24 00:38:28;;;;;;;6.07;1.40;;;10.40;99.90;;;;;;5012400;28;20641;-66
2020/12/24 00:40:54;;;;;;;6.37;1.07;;;10.40;99.90;;;;;;5012443;28;20423;-67
2020/12/24 00:43:20;;;;;;;9.70;1.20;;;10.40;99.90;;;;;;5012410;28;20181;-66
2020/12/24 00:45:46;;;;;;;5.60;1.00;;;10.50;99.90;;;;;;5012091;28;20180;-68
2020/12/24 00:48:11;;;;;;;4.50;0.97;;;10.50;99.90;;;;;;5012275;28;20180;-68
2020/12/24 00:50:37;;;;;;;5.43;1.13;;;10.50;99.90;;;;;;5012087;28;20550;-67
2020/12/24 00:53:02;;;;;;;6.27;1.47;;;10.50;99.90;;;;;;5014193;28;20348;-66
2020/12/24 00:55:28;;;;;;;5.47;1.40;;;10.50;99.90;;;;;;5012286;28;20177;-68
2020/12/24 00:57:54;;;;;;;5.17;1.30;;;10.40;99.90;;;;;;5012053;28;20234;-67
2020/12/24 01:00:19;;;;;;;5.03;0.97;;;10.40;99.90;;;;;;5012225;28;20251;-67
2020/12/24 01:02:45;;;;;;;5.80;1.20;;;10.40;99.90;;;;;;5022798;28;20187;-66
2020/12/24 01:05:10;;;;;;;6.67;1.30;;;10.40;99.90;;;;;;5031781;28;20175;-67
2020/12/24 01:07:36;;;;;;;5.90;1.00;;;10.40;99.90;;;;;;5031805;28;20204;-67
2020/12/24 01:10:08;;;;;;;2.73;0.83;;;10.40;99.90;;;;;;5031397;28;20509;-66
2020/12/24 01:12:34;;;;;;;2.87;1.27;;;10.40;99.90;;;;;;5031578;28;20175;-67
2020/12/24 01:15:00;;;;;;;2.67;0.87;;;10.40;99.90;;;;;;5031542;28;20179;-68
2020/12/24 01:17:26;;;;;;;2.07;0.67;;;10.40;99.90;;;;;;5031316;28;20629;-67
2020/12/24 01:19:52;;;;;;;4.33;1.03;;;10.40;99.90;;;;;;5031345;28;20258;-66
2020/12/24 01:22:17;;;;;;;3.43;1.00;;;10.40;99.90;;;;;;5031269;28;20186;-67
2020/12/24 01:24:43;;;;;;;3.77;0.67;;;10.40;99.90;;;;;;5031272;28;20211;-66
2020/12/24 01:27:08;;;;;;;6.10;0.80;;;10.40;99.90;;;;;;5013356;28;20553;-67
2020/12/24 01:29:34;;;;;;;6.80;1.00;;;10.30;99.90;;;;;;5031147;28;20222;-67
2020/12/24 01:31:59;;;;;;;10.40;2.43;;;10.30;99.90;;;;;;5030934;28;20175;-65
2020/12/24 01:34:25;;;;;;;2.73;0.80;;;10.30;99.90;;;;;;5031102;28;20183;-66
2020/12/24 01:36:50;;;;;;;3.07;0.67;;;10.30;99.90;;;;;;5030930;28;20172;-67
2020/12/24 01:39:16;;;;;;;2.10;0.77;;;10.30;99.90;;;;;;5030574;28;20176;-65
2020/12/24 01:41:42;;;;;;;3.80;0.60;;;10.30;99.90;;;;;;5030981;28;20229;-68
2020/12/24 01:44:07;;;;;;;5.47;0.83;;;10.30;99.90;;;;;;5031154;28;20177;-68
2020/12/24 01:46:33;;;;;;;0.70;0.23;;;10.30;99.90;;;;;;5030607;28;20217;-66
2020/12/24 01:48:58;;;;;;;4.83;0.50;;;10.30;99.90;;;;;;5030860;28;20172;-67
2020/12/24 01:51:27;;;;;;;3.10;1.00;;;10.30;99.90;;;;;;5030875;28;20210;-66
2020/12/24 01:53:54;;;;;;;5.13;1.10;;;10.20;99.90;;;;;;5030321;28;20207;-67
2020/12/24 01:56:21;;;;;;;6.33;1.23;;;10.20;99.90;;;;;;5030601;28;20418;-66
2020/12/24 01:58:47;;;;;;;4.83;1.03;;;10.10;99.90;;;;;;5029940;28;20480;-68
2020/12/24 02:01:12;;;;;;;4.77;1.30;;;10.10;99.90;;;;;;5010983;28;20415;-67
2020/12/24 02:03:38;;;;;;;3.60;0.87;;;10.00;99.90;;;;;;5011153;28;20176;-65
2020/12/24 02:06:04;;;;;;;6.17;1.73;;;10.00;99.90;;;;;;5012459;28;20709;-68
2020/12/24 02:08:29;;;;;;;8.00;1.50;;;9.90;99.90;;;;;;5030974;28;20186;-67
2020/12/24 02:10:55;;;;;;;4.60;0.87;;;9.90;99.90;;;;;;5030823;28;20176;-67
2020/12/24 02:13:21;;;;;;;3.13;0.80;;;9.80;99.90;;;;;;5030554;28;20232;-67
2020/12/24 02:15:46;;;;;;;6.73;1.20;;;9.70;99.90;;;;;;5030629;28;20263;-68
2020/12/24 02:18:12;;;;;;;3.97;1.10;;;9.60;99.90;;;;;;5013041;28;20195;-65
2020/12/24 02:20:44;;;;;;;8.40;1.27;;;9.60;99.90;;;;;;5030518;28;20176;-68
2020/12/24 02:23:11;;;;;;;6.50;1.30;;;9.40;99.90;;;;;;5031023;28;20706;-67
2020/12/24 02:25:37;;;;;;;5.87;1.30;;;9.30;99.90;;;;;;5012988;28;20425;-66
2020/12/24 02:28:03;;;;;;;9.97;1.30;;;9.30;99.90;;;;;;5009728;28;20458;-65
2020/12/24 02:30:29;;;;;;;9.13;1.30;;;9.20;99.90;;;;;;5010836;28;20407;-65
2020/12/24 02:32:55;;;;;;;6.23;1.10;;;9.20;99.90;;;;;;5010864;28;20408;-67
2020/12/24 02:35:21;;;;;;;6.33;1.30;;;9.20;99.90;;;;;;5011035;28;20913;-68
2020/12/24 02:37:47;;;;;;;4.10;1.23;;;9.20;99.90;;;;;;5010847;28;20224;-65
2020/12/24 02:40:13;;;;;;;6.27;1.00;;;9.20;99.90;;;;;;5011214;28;20173;-66
2020/12/24 02:42:39;;;;;;;5.93;1.00;;;9.20;99.90;;;;;;5010762;28;20185;-67
2020/12/24 02:45:05;;;;;;;10.60;1.53;;;9.30;99.90;;;;;;5010681;28;20537;-67
2020/12/24 02:47:31;;;;;;;8.93;1.40;;;9.30;99.90;;;;;;5010911;28;20299;-66
2020/12/24 02:49:58;;;;;;;5.20;1.23;;;9.30;99.90;;;;;;5013191;28;20847;-65
2020/12/24 02:52:24;;;;;;;6.73;1.10;;;9.30;99.90;;;;;;5016039;28;20271;-66
2020/12/24 02:54:50;;;;;;;7.13;1.17;;;9.20;99.90;;;;;;5014621;28;20419;-66
2020/12/24 02:57:15;;;;;;;4.83;1.17;;;9.20;99.90;;;;;;5014488;28;20905;-67
2020/12/24 02:59:41;;;;;;;6.53;1.10;;;9.20;99.90;;;;;;4996684;28;20184;-65
2020/12/24 03:02:07;;;;;;;11.83;1.70;;;9.20;99.90;;;;;;5014264;28;20575;-68
2020/12/24 03:04:33;;;;;;;7.57;1.23;;;9.10;99.90;;;;;;5014144;28;20176;-68
2020/12/24 03:06:59;;;;;;;5.93;0.97;;;9.00;99.90;;;;;;5011454;28;20291;-66
2020/12/24 03:09:24;;;;;;;8.63;1.47;;;9.00;99.90;;;;;;5013964;28;20454;-67
2020/12/24 03:11:50;;;;;;;7.00;1.60;;;9.00;99.90;;;;;;5014295;28;20173;-65
2020/12/24 03:14:19;;;;;;;5.60;1.30;;;8.90;99.90;;;;;;5013844;28;20235;-66
2020/12/24 03:16:46;;;;;;;9.07;1.57;;;8.90;99.90;;;;;;5014243;28;20180;-66
2020/12/24 03:19:12;;;;;;;7.87;1.30;;;8.90;99.90;;;;;;5014150;28;20424;-67
2020/12/24 03:21:37;;;;;;;7.97;1.80;;;8.90;99.90;;;;;;5013955;28;20423;-66
2020/12/24 03:24:03;;;;;;;9.10;1.67;;;8.80;99.90;;;;;;5013937;28;20192;-67
2020/12/24 03:26:29;;;;;;;7.57;1.30;;;8.80;99.90;;;;;;5013587;28;20192;-66
2020/12/24 03:28:55;;;;;;;7.20;1.30;;;8.80;99.90;;;;;;5013780;28;20592;-66
2020/12/24 03:31:22;;;;;;;6.53;1.10;;;8.80;99.90;;;;;;5013685;28;20169;-67
2020/12/24 03:33:48;;;;;;;6.83;1.40;;;8.90;99.90;;;;;;5013537;28;20176;-66
2020/12/24 03:36:14;;;;;;;14.87;1.73;;;8.90;99.90;;;;;;5013970;28;20458;-65
2020/12/24 03:38:40;;;;;;;6.67;1.20;;;9.00;99.90;;;;;;5013491;28;20447;-66
2020/12/24 03:41:05;;;;;;;10.93;1.27;;;9.00;99.90;;;;;;5013624;28;20180;-66
2020/12/24 03:43:31;;;;;;;8.50;1.13;;;9.00;99.90;;;;;;5013439;28;20654;-67
2020/12/24 03:45:56;;;;;;;5.60;1.33;;;9.00;99.90;;;;;;5013296;28;20188;-65
2020/12/24 03:48:22;;;;;;;6.03;1.20;;;9.00;99.90;;;;;;5013553;28;20191;-66
2020/12/24 03:50:48;;;;;;;6.70;1.20;;;8.90;99.90;;;;;;5013295;28;20217;-66
2020/12/24 03:53:13;;;;;;;6.93;1.30;;;8.80;99.90;;;;;;5014785;28;20294;-67
2020/12/24 03:55:39;;;;;;;6.50;1.10;;;8.70;99.90;;;;;;5013257;28;20176;-67
2020/12/24 03:58:04;;;;;;;6.60;1.20;;;8.60;99.90;;;;;;4995649;28;20185;-67
2020/12/24 04:00:30;;;;;;;5.83;1.30;;;8.50;99.90;;;;;;5012828;28;20232;-65
2020/12/24 04:02:55;;;;;;;6.03;0.90;;;8.40;99.90;;;;;;5013146;28;20193;-67
2020/12/24 04:05:21;;;;;;;10.60;1.67;;;8.40;99.90;;;;;;5013063;28;20188;-66
2020/12/24 04:07:50;;;;;;;7.90;1.27;;;8.40;99.90;;;;;;5013022;28;20208;-65
2020/12/24 04:10:16;;;;;;;5.47;1.10;;;8.40;99.90;;;;;;5013094;28;20276;-66
2020/12/24 04:12:42;;;;;;;5.43;1.00;;;8.30;99.90;;;;;;5013363;28;20819;-67
2020/12/24 04:15:08;;;;;;;7.03;1.03;;;8.40;99.90;;;;;;5012839;28;20450;-66
2020/12/24 04:17:33;;;;;;;8.90;1.47;;;8.40;99.90;;;;;;5012819;28;20566;-66
2020/12/24 04:19:59;;;;;;;4.60;1.40;;;8.40;99.90;;;;;;5012733;28;20189;-66
2020/12/24 04:22:24;;;;;;;5.80;1.30;;;8.40;99.90;;;;;;5012894;28;20263;-66
2020/12/24 04:24:51;;;;;;;10.90;1.50;;;8.40;99.90;;;;;;5012826;28;20188;-66
2020/12/24 04:27:17;;;;;;;7.33;1.37;;;8.40;99.90;;;;;;5012659;28;20204;-66
2020/12/24 04:29:42;;;;;;;5.87;1.53;;;8.50;99.90;;;;;;5012734;28;21012;-67
2020/12/24 04:32:08;;;;;;;4.67;1.23;;;8.50;99.90;;;;;;5012582;28;20519;-68
2020/12/24 04:34:34;;;;;;;5.90;1.13;;;8.60;99.90;;;;;;5012607;28;20183;-65
2020/12/24 04:37:00;;;;;;;9.00;1.67;;;8.60;99.90;;;;;;5012522;28;20187;-67
2020/12/24 04:39:26;;;;;;;7.33;1.30;;;8.50;99.90;;;;;;5012932;28;20179;-67
2020/12/24 04:41:58;;;;;;;6.57;1.10;;;8.50;99.90;;;;;;5012476;28;21528;-67
2020/12/24 04:44:26;;;;;;;10.57;1.10;;;8.40;99.90;;;;;;5012466;28;20466;-67
2020/12/24 04:46:57;;;;;;;6.73;1.47;;;8.40;99.90;;;;;;5012392;28;20502;-67
2020/12/24 04:49:25;;;;;;;7.30;1.10;;;8.30;99.90;;;;;;5012438;28;20419;-66
2020/12/24 04:51:51;;;;;;;7.90;1.10;;;8.30;99.90;;;;;;5013721;28;20419;-66
2020/12/24 04:54:17;;;;;;;5.93;1.10;;;8.30;99.90;;;;;;5012093;28;20494;-66
2020/12/24 04:56:43;;;;;;;4.13;0.93;;;8.40;99.90;;;;;;5012261;28;20431;-65
2020/12/24 04:59:09;;;;;;;10.30;1.20;;;8.40;99.90;;;;;;5012286;28;20185;-67
2020/12/24 05:01:35;;;;;;;5.13;1.30;;;8.50;99.90;;;;;;5011974;28;20752;-66
2020/12/24 05:04:01;;;;;;;6.23;1.27;;;8.40;99.90;;;;;;5012117;28;20176;-67
2020/12/24 05:06:27;;;;;;;10.30;1.63;;;8.50;99.90;;;;;;5012185;28;20211;-67
2020/12/24 05:08:59;;;;;;;7.13;1.23;;;8.60;99.90;;;;;;5011768;28;20454;-66
2020/12/24 05:11:30;;;;;;;7.03;1.07;;;8.60;99.90;;;;;;5012026;28;20169;-66
2020/12/24 05:14:15;;;;;;;7.23;1.23;;;8.60;99.90;;;;;;5010979;28;20419;-66
2020/12/24 05:16:56;;;;;;;1.77;0.87;;;8.70;99.90;;;;;;5012450;28;20415;-66
2020/12/24 05:19:22;;;;;;;6.93;0.87;;;8.70;99.90;;;;;;4994404;28;20415;-65
2020/12/24 05:21:48;;;;;;;4.33;0.80;;;8.80;99.90;;;;;;5011795;28;20416;-66
2020/12/24 05:24:33;;;;;;;3.70;0.90;;;8.80;99.90;;;;;;5011737;28;20442;-67
2020/12/24 05:27:10;;;;;;;1.57;0.60;;;8.80;99.90;;;;;;5011447;28;20196;-65
2020/12/24 05:29:38;;;;;;;4.67;0.73;;;8.80;99.90;;;;;;5011644;28;20422;-66
2020/12/24 05:32:05;;;;;;;4.40;0.87;;;8.80;99.90;;;;;;5011541;28;20412;-67
2020/12/24 05:34:31;;;;;;;4.60;0.83;;;8.80;99.90;;;;;;5011753;28;20405;-65
2020/12/24 05:37:16;;;;;;;2.80;0.80;;;8.80;99.90;;;;;;5011670;28;20419;-66
2020/12/24 05:39:45;;;;;;;5.00;1.17;;;8.80;99.90;;;;;;5011498;28;20423;-65
2020/12/24 05:42:11;;;;;;;3.27;0.43;;;8.80;99.90;;;;;;5011206;28;20421;-67
2020/12/24 05:44:37;;;;;;;3.50;0.70;;;8.80;99.90;;;;;;5011444;28;20415;-65
2020/12/24 05:47:04;;;;;;;2.33;0.57;;;8.80;99.90;;;;;;5011248;28;20208;-67
2020/12/24 05:49:30;;;;;;;3.47;0.90;;;8.70;99.90;;;;;;5011433;28;20423;-65
2020/12/24 05:52:00;;;;;;;2.43;0.67;;;8.80;99.90;;;;;;5012313;28;20987;-65
2020/12/24 05:54:29;;;;;;;4.50;0.90;;;8.70;99.90;;;;;;4991373;28;20185;-67
2020/12/24 05:56:57;;;;;;;5.70;1.17;;;8.80;99.90;;;;;;4991595;28;20423;-67
2020/12/24 05:59:26;;;;;;;2.73;1.07;;;8.80;99.90;;;;;;4973830;28;20480;-68
2020/12/24 06:02:14;;;;;;;3.90;1.00;;;8.80;99.90;;;;;;4991801;28;20445;-66
2020/12/24 06:04:42;;;;;;;3.77;0.83;;;8.80;99.90;;;;;;4991753;28;20459;-67
2020/12/24 06:07:09;;;;;;;6.17;1.20;;;8.80;99.90;;;;;;4991984;28;20459;-67
2020/12/24 06:09:39;;;;;;;3.47;0.43;;;8.80;99.90;;;;;;4991866;28;20910;-66
2020/12/24 06:12:19;;;;;;;5.57;1.20;;;8.90;99.90;;;;;;4992102;28;20428;-66
2020/12/24 06:14:47;;;;;;;4.83;1.03;;;8.80;99.90;;;;;;5011002;28;20934;-67
2020/12/24 06:17:27;;;;;;;6.17;0.97;;;8.80;99.90;;;;;;5011482;28;20826;-67
2020/12/24 06:19:53;;;;;;;5.07;0.70;;;8.80;99.90;;;;;;5011753;28;20455;-67
2020/12/24 06:22:21;;;;;;;3.53;0.83;;;8.70;99.90;;;;;;5011471;28;20447;-66
2020/12/24 06:24:51;;;;;;;2.73;0.83;;;8.70;99.90;;;;;;5013661;28;20180;-67
2020/12/24 06:27:35;;;;;;;5.30;0.80;;;8.70;99.90;;;;;;5013030;28;20809;-65
2020/12/24 06:30:15;;;;;;;3.00;0.60;;;8.70;99.90;;;;;;4995919;28;22510;-64
2020/12/24 06:32:47;;;;;;;3.93;0.97;;;8.60;99.90;;;;;;4995678;28;20412;-65
2020/12/24 06:35:39;;;;;;;4.40;1.13;;;8.60;99.90;;;;;;4995800;28;20419;-66
2020/12/24 06:38:07;;;;;;;3.10;0.77;;;8.60;99.90;;;;;;4995725;28;20424;-68
2020/12/24 06:40:36;;;;;;;4.77;0.80;;;8.60;99.90;;;;;;5012781;28;20418;-64
2020/12/24 06:43:02;;;;;;;2.57;0.83;;;8.50;99.90;;;;;;5030245;28;20893;-65
2020/12/24 06:45:27;;;;;;;3.87;0.63;;;8.40;99.90;;;;;;5015295;28;20613;-66
2020/12/24 06:48:15;;;;;;;3.73;0.70;;;8.40;99.90;;;;;;5014765;28;20212;-67
2020/12/24 06:50:45;;;;;;;3.30;0.67;;;8.40;99.90;;;;;;5014370;28;20561;-66
2020/12/24 06:53:24;;;;;;;4.07;1.07;;;8.50;99.90;;;;;;5025748;28;20457;-65
2020/12/24 06:56:14;;;;;;;2.40;0.67;;;8.40;99.90;;;;;;5033932;28;21034;-67
2020/12/24 06:58:40;;;;;;;5.30;0.97;;;8.40;99.90;;;;;;5034052;28;20421;-66
2020/12/24 07:01:06;;;;;;;4.57;0.80;;;8.40;99.90;;;;;;5033528;28;20847;-68
2020/12/24 07:03:35;;;;;;;5.17;1.20;;;8.50;99.90;;;;;;5033791;28;20449;-68
2020/12/24 07:06:01;;;;;;;3.33;0.80;;;8.50;99.90;;;;;;5033705;28;20503;-65
2020/12/24 07:08:33;;;;;;;2.93;0.90;;;8.50;99.90;;;;;;5020143;28;21687;-67
2020/12/24 07:11:00;;;;;;;3.93;0.70;;;8.40;99.90;;;;;;5014278;28;20168;-66
2020/12/24 07:13:35;;;;;;;2.87;0.80;;;8.50;99.90;;;;;;5032475;28;20457;-67
2020/12/24 07:16:06;;;;;;;4.97;1.37;;;8.50;99.90;;;;;;5033782;28;20983;-65
2020/12/24 07:18:34;;;;;;;5.53;0.90;;;8.40;99.90;;;;;;5033415;28;20406;-66
2020/12/24 07:21:01;;;;;;;2.43;0.60;;;8.40;99.90;;;;;;5033473;28;20488;-66
2020/12/24 07:23:38;;;;;;;4.00;1.17;;;8.40;99.90;;;;;;5014418;28;20482;-66
2020/12/24 07:26:05;;;;;;;7.23;1.10;;;8.40;99.90;;;;;;5013653;28;20407;-67
2020/12/24 07:28:34;;;;;;;2.90;0.80;;;8.40;99.90;;;;;;5022945;28;20415;-66
2020/12/24 07:31:01;;;;;;;2.63;0.67;;;8.40;99.90;;;;;;5033570;28;20421;-67
2020/12/24 07:33:27;;;;;;;5.30;1.20;;;8.40;99.90;;;;;;5033175;28;20414;-64
2020/12/24 07:35:53;;;;;;;2.23;1.23;;;8.40;99.90;;;;;;5031998;28;20465;-65
2020/12/24 07:38:25;;;;;;;3.77;0.67;;;8.40;99.90;;;;;;5033020;28;20465;-66
2020/12/24 07:40:50;;;;;;;2.53;0.70;;;8.30;99.90;;;;;;5032865;28;20426;-66
2020/12/24 07:43:16;;;;;;;5.30;0.80;;;8.40;99.90;;;;;;5032891;28;20577;-66
2020/12/24 07:45:43;;;;;;;3.60;1.17;;;8.30;99.90;;;;;;5033092;28;20515;-67
2020/12/24 07:48:16;;;;;;;5.50;1.20;;;8.30;99.90;;;;;;5032935;28;20649;-67
2020/12/24 07:50:43;;;;;;;4.20;1.20;;;8.30;99.90;;;;;;5032777;28;20454;-67
2020/12/24 07:53:10;;;;;;;5.47;0.93;;;8.20;99.90;;;;;;5034949;28;20469;-66
2020/12/24 07:55:42;;;;;;;6.27;1.23;;;8.20;99.90;;;;;;5032667;28;20426;-64
2020/12/24 07:58:09;;;;;;;8.60;1.40;;;8.20;99.90;;;;;;5032674;28;20892;-67
2020/12/24 08:00:48;;;;;;;6.53;1.10;;;8.20;99.90;;;;;;5032763;28;20779;-67
2020/12/24 08:03:16;;;;;;;3.57;0.97;;;8.20;99.90;;;;;;5032562;28;20419;-64
2020/12/24 08:05:43;;;;;;;2.80;1.03;;;8.10;99.90;;;;;;5032315;28;20414;-66
2020/12/24 08:08:09;;;;;;;2.00;0.83;;;8.10;99.90;;;;;;5032141;28;20498;-66
2020/12/24 08:10:42;;;;;;;5.53;1.37;;;8.00;99.90;;;;;;5032434;28;20423;-66
2020/12/24 08:13:09;;;;;;;3.97;1.10;;;8.00;99.90;;;;;;5032048;28;20804;-67
2020/12/24 08:15:46;;;;;;;3.70;1.10;;;8.00;99.90;;;;;;5032240;28;20429;-66
2020/12/24 08:18:13;;;;;;;6.40;1.30;;;8.00;99.90;;;;;;5031857;28;20434;-65
2020/12/24 08:20:56;;;;;;;7.63;1.17;;;8.00;99.90;;;;;;5032170;28;20433;-66
2020/12/24 08:23:40;;;;;;;7.37;1.13;;;8.00;99.90;;;;;;5032260;28;20423;-65
2020/12/24 08:26:07;;;;;;;5.17;1.00;;;8.00;99.90;;;;;;5032219;28;20537;-65
2020/12/24 08:28:33;;;;;;;4.80;1.10;;;8.00;99.90;;;;;;5032167;28;20438;-65
2020/12/24 08:31:00;;;;;;;5.60;1.10;;;8.00;99.90;;;;;;5032651;28;20418;-65
2020/12/24 08:33:26;;;;;;;4.10;1.40;;;7.90;99.90;;;;;;5032387;28;20524;-67
2020/12/24 08:35:52;;;;;;;5.40;0.70;;;8.00;99.90;;;;;;5029061;28;20452;-68
2020/12/24 08:38:19;;;;;;;3.73;0.80;;;7.90;99.90;;;;;;5012894;28;21948;-65
2020/12/24 08:40:46;;;;;;;5.33;0.60;;;7.90;99.90;;;;;;5012791;28;20168;-64
2020/12/24 08:43:12;;;;;;;7.73;1.10;;;7.80;99.90;;;;;;5012805;28;20408;-68
2020/12/24 08:45:45;;;;;;;2.63;0.53;;;7.80;99.90;;;;;;5012745;28;20876;-66
2020/12/24 08:48:36;;;;;;;2.73;0.60;;;7.80;99.90;;;;;;5012418;28;20606;-66
2020/12/24 08:51:22;;;;;;;2.33;0.50;;;7.80;99.90;;;;;;5012639;28;20423;-67
2020/12/24 08:53:51;;;;;;;3.53;1.07;;;7.90;99.90;;;;;;5027127;28;20975;-65
2020/12/24 08:56:17;;;;;;;3.67;0.70;;;7.90;99.90;;;;;;5027564;28;20456;-66
2020/12/24 08:59:15;;;;;;;2.77;0.60;;;7.90;99.90;;;;;;5020167;28;20419;-66
2020/12/24 09:01:44;;;;;;;1.33;0.40;;;7.90;99.90;;;;;;5011161;28;20912;-66
2020/12/24 09:04:17;;;;;;;3.77;0.70;;;7.90;99.90;;;;;;5018310;28;20518;-65
2020/12/24 09:06:46;;;;;;;2.97;0.40;;;8.10;99.90;;;;;;5031330;28;20975;-64
2020/12/24 09:09:25;;;;;;;3.97;0.80;;;7.90;99.90;;;;;;5030448;28;20505;-66
2020/12/24 09:11:52;;;;;;;2.10;0.73;;;7.90;99.90;;;;;;5015693;28;20501;-66
2020/12/24 09:14:20;;;;;;;1.43;0.60;;;7.90;99.90;;;;;;5019858;28;20494;-67
2020/12/24 09:16:58;;;;;;;2.37;1.00;;;7.90;99.90;;;;;;5016185;28;20406;-66
2020/12/24 09:19:24;;;;;;;3.37;0.93;;;7.90;99.90;;;;;;5031591;28;20442;-66
2020/12/24 09:21:57;;;;;;;1.97;0.80;;;8.00;99.90;;;;;;5023358;28;20430;-65
2020/12/24 09:24:26;;;;;;;1.27;0.50;;;8.00;99.90;;;;;;5021631;28;20772;-67
2020/12/24 09:26:54;;;;;;;1.87;0.70;;;8.10;99.90;;;;;;5011737;28;20950;-66
2020/12/24 09:29:21;;;;;;;1.83;0.70;;;8.10;99.90;;;;;;5013189;28;20754;-65
2020/12/24 09:32:00;;;;;;;1.10;0.53;;;8.20;99.90;;;;;;5013083;28;20448;-67
2020/12/24 09:34:30;;;;;;;4.93;0.73;;;8.40;99.90;;;;;;5026293;28;20938;-65
2020/12/24 09:36:56;;;;;;;1.93;0.73;;;8.40;99.90;;;;;;5013087;28;20426;-66
2020/12/24 09:39:22;;;;;;;1.33;0.50;;;8.30;99.90;;;;;;5016506;28;20426;-65
2020/12/24 09:41:49;;;;;;;0.93;0.40;;;8.40;99.90;;;;;;5021605;28;20425;-67
2020/12/24 09:44:15;;;;;;;1.10;0.40;;;8.40;99.90;;;;;;5011698;28;20184;-65
2020/12/24 09:46:42;;;;;;;1.43;0.40;;;8.30;99.90;;;;;;5014062;28;20451;-66
2020/12/24 09:49:07;;;;;;;2.83;0.40;;;8.30;99.90;;;;;;5025661;28;20520;-65
2020/12/24 09:51:36;;;;;;;1.60;0.30;;;8.20;99.90;;;;;;5014086;28;20467;-65
2020/12/24 09:54:04;;;;;;;1.53;0.70;;;8.20;99.90;;;;;;5017556;28;20267;-66
2020/12/24 09:56:29;;;;;;;2.70;0.40;;;8.20;99.90;;;;;;5017917;28;20431;-65
2020/12/24 09:58:55;;;;;;;1.63;0.50;;;8.20;99.90;;;;;;5020724;28;20434;-67
2020/12/24 10:01:20;;;;;;;2.60;0.70;;;8.10;99.90;;;;;;5016817;28;20179;-66
2020/12/24 10:03:46;;;;;;;2.60;1.03;;;8.00;99.90;;;;;;5021897;28;20259;-65
2020/12/24 10:06:12;;;;;;;1.13;0.50;;;8.10;99.90;;;;;;5021149;28;20187;-66
2020/12/24 10:08:38;;;;;;;1.47;0.57;;;8.10;99.90;;;;;;5022328;28;20172;-65
2020/12/24 10:11:04;;;;;;;6.00;3.23;;;8.10;99.90;;;;;;5011345;28;20760;-65
2020/12/24 10:13:29;;;;;;;0.43;0.40;;;8.20;99.90;;;;;;5011228;28;20184;-65
2020/12/24 10:15:55;;;;;;;0.70;0.40;;;8.20;99.90;;;;;;5011310;28;20188;-66
2020/12/24 10:18:21;;;;;;;1.10;0.43;;;8.20;99.90;;;;;;5027380;28;20234;-65
2020/12/24 10:20:53;;;;;;;2.40;0.50;;;8.20;99.90;;;;;;5021092;28;20310;-68
2020/12/24 10:23:19;;;;;;;0.97;0.57;;;8.30;99.90;;;;;;5011166;28;20500;-64
2020/12/24 10:25:45;;;;;;;0.93;0.37;;;8.30;99.90;;;;;;5004091;28;20459;-66
2020/12/24 10:28:11;;;;;;;2.93;0.80;;;8.30;99.90;;;;;;5015032;28;20504;-66
2020/12/24 10:30:36;;;;;;;1.60;0.60;;;8.30;99.90;;;;;;5023732;28;20184;-67
2020/12/24 10:33:02;;;;;;;2.13;0.50;;;8.40;99.90;;;;;;5018305;28;20173;-69
2020/12/24 10:35:27;;;;;;;2.67;0.60;;;8.40;99.90;;;;;;5011258;28;21802;-68
2020/12/24 10:37:53;;;;;;;0.77;0.33;;;8.40;99.90;;;;;;5011040;28;20176;-65
2020/12/24 10:40:19;;;;;;;2.00;0.40;;;8.50;99.90;;;;;;5021541;28;20180;-66
2020/12/24 10:42:47;;;;;;;2.50;0.70;;;8.40;99.90;;;;;;5030588;28;20214;-68
2020/12/24 10:45:13;;;;;;;1.00;0.47;;;8.40;99.90;;;;;;5010068;28;20173;-70
2020/12/24 10:47:39;;;;;;;1.33;0.40;;;8.40;99.90;;;;;;5011022;28;20513;-66
2020/12/24 10:50:05;;;;;;;0.60;0.40;;;8.40;99.90;;;;;;5030494;28;20227;-65
2020/12/24 10:52:31;;;;;;;1.87;0.30;;;8.40;99.90;;;;;;5027721;28;20646;-69
2020/12/24 10:54:56;;;;;;;0.87;0.47;;;8.40;99.90;;;;;;5010633;28;20439;-65
2020/12/24 10:57:22;;;;;;;1.90;0.60;;;8.40;99.90;;;;;;5010934;28;20259;-67
2020/12/24 10:59:48;;;;;;;0.67;0.30;;;8.40;99.90;;;;;;5010888;28;20574;-66
2020/12/24 11:02:13;;;;;;;0.70;0.30;;;8.40;99.90;;;;;;5010695;28;20176;-67
2020/12/24 11:04:39;;;;;;;0.27;0.20;;;8.50;99.90;;;;;;5010983;28;20211;-66
2020/12/24 11:07:04;;;;;;;0.77;0.37;;;8.40;99.90;;;;;;5010673;28;20546;-68
2020/12/24 11:09:30;;;;;;;3.23;0.30;;;8.50;99.90;;;;;;5010894;28;20215;-66
2020/12/24 11:11:56;;;;;;;0.20;0.20;;;8.50;99.90;;;;;;5014406;28;20184;-66
2020/12/24 11:14:21;;;;;;;1.23;0.33;;;8.50;99.90;;;;;;5014359;28;20635;-66
2020/12/24 11:16:47;;;;;;;0.60;0.30;;;8.50;99.90;;;;;;5014274;28;20177;-67
2020/12/24 11:19:13;;;;;;;0.67;0.40;;;8.50;99.90;;;;;;5014396;28;20191;-69
2020/12/24 11:21:38;;;;;;;0.47;0.37;;;8.50;99.90;;;;;;5014423;28;20180;-66
2020/12/24 11:24:06;;;;;;;0.93;0.40;;;8.50;99.90;;;;;;5013901;28;20264;-68
2020/12/24 11:26:36;;;;;;;1.97;0.30;;;8.60;99.90;;;;;;5014104;28;20694;-65
2020/12/24 11:29:06;;;;;;;0.57;0.37;;;8.50;99.90;;;;;;5014101;28;20412;-65
2020/12/24 11:31:34;;;;;;;1.80;0.23;;;8.40;99.90;;;;;;5013985;28;20422;-66
2020/12/24 11:34:00;;;;;;;1.13;0.20;;;8.40;99.90;;;;;;5013867;28;20507;-68
2020/12/24 11:36:33;;;;;;;1.53;0.50;;;8.40;99.90;;;;;;5013471;28;20905;-66
2020/12/24 11:38:59;;;;;;;0.30;0.30;;;8.30;99.90;;;;;;4994608;28;20181;-66
2020/12/24 11:41:26;;;;;;;1.90;0.37;;;8.30;99.90;;;;;;5011313;28;20422;-69
2020/12/24 11:43:53;;;;;;;1.40;0.20;;;8.30;99.90;;;;;;5013011;28;20184;-66
2020/12/24 11:46:20;;;;;;;0.63;0.30;;;8.30;99.90;;;;;;5013222;28;20411;-66
2020/12/24 11:48:47;;;;;;;1.13;0.30;;;8.30;99.90;;;;;;5013295;28;20454;-67
2020/12/24 11:51:14;;;;;;;0.67;0.30;;;8.30;99.90;;;;;;5013217;28;20415;-67
2020/12/24 11:53:40;;;;;;;0.50;0.30;;;8.20;99.90;;;;;;5013790;28;20453;-68
2020/12/24 11:56:11;;;;;;;4.63;1.20;;;8.20;99.90;;;;;;5013004;28;20751;-69
2020/12/24 11:58:37;;;;;;;1.40;0.30;;;8.20;99.90;;;;;;5012925;28;20446;-67
2020/12/24 12:01:02;;;;;;;1.83;0.60;;;8.10;99.90;;;;;;5012832;28;20471;-67
2020/12/24 12:03:28;;;;;;;0.20;0.20;;;8.20;99.90;;;;;;5012976;28;20184;-66
2020/12/24 12:05:53;;;;;;;1.00;0.30;;;8.20;99.90;;;;;;5013113;28;20219;-66
2020/12/24 12:08:19;;;;;;;0.40;0.40;;;8.20;99.90;;;;;;5014354;28;20208;-68
2020/12/24 12:10:45;;;;;;;1.43;1.17;;;8.20;99.90;;;;;;5020949;28;20180;-68
2020/12/24 12:13:11;;;;;;;0.83;0.60;;;8.30;99.90;;;;;;5013082;28;20187;-67
2020/12/24 12:15:37;;;;;;;0.50;0.40;;;8.30;99.90;;;;;;5016977;28;20416;-68
2020/12/24 12:18:05;;;;;;;0.50;0.50;;;8.20;99.90;;;;;;5026482;28;20519;-69
2020/12/24 12:20:32;;;;;;;0.80;0.30;;;8.30;99.90;;;;;;5023861;28;20747;-68
2020/12/24 12:22:58;;;;;;;0.20;0.20;;;8.30;99.90;;;;;;5020350;28;20494;-67
2020/12/24 12:25:23;;;;;;;0.87;0.33;;;8.30;99.90;;;;;;5015412;28;20510;-67
2020/12/24 12:27:49;;;;;;;0.67;0.53;;;8.30;99.90;;;;;;5012525;28;20226;-67
2020/12/24 12:30:15;;;;;;;0.37;0.37;;;8.50;99.90;;;;;;5012673;28;20187;-66
2020/12/24 12:32:40;;;;;;;0.47;0.30;;;8.60;99.90;;;;;;5018462;28;20171;-67
2020/12/24 12:35:07;;;;;;;0.83;0.30;;;8.70;99.90;;;;;;5014420;28;20290;-67
2020/12/24 12:37:37;;;;;;;1.50;0.60;;;8.90;99.90;;;;;;5031910;28;20637;-67
2020/12/24 12:40:06;;;;;;;0.70;0.70;;;8.90;99.90;;;;;;5031987;28;20454;-67
2020/12/24 12:42:32;;;;;;;0.57;0.47;;;8.90;99.90;;;;;;5031872;28;20419;-67
2020/12/24 12:44:58;;;;;;;1.43;0.60;;;8.70;99.90;;;;;;5031843;28;20432;-67
2020/12/24 12:47:24;;;;;;;0.80;0.57;;;8.70;99.90;;;;;;5032081;28;20203;-67
2020/12/24 12:49:50;;;;;;;1.80;1.03;;;8.70;99.90;;;;;;5031577;28;20171;-67
2020/12/24 12:52:16;;;;;;;0.77;0.57;;;8.90;99.90;;;;;;5031899;28;20207;-67
2020/12/24 12:54:41;;;;;;;1.97;1.57;;;9.10;99.90;;;;;;5033872;28;20560;-68
2020/12/24 12:57:07;;;;;;;0.80;0.70;;;9.30;99.90;;;;;;5032224;28;20270;-66
2020/12/24 12:59:33;;;;;;;0.80;0.60;;;9.50;99.90;;;;;;5030893;28;20327;-68